Imagination — C6FN2 — position and weather

sailwx.info

Track history (hours):
 
Tides and Currents Weather Stations Pressure Air Temp Water Temp Dewpoint Dewpoint Depression Visibility Wind Speed Wind Dir Waves Ship Positions

Imagination

Operator: Carnival Cruise Lines

Last reported at 2017-Nov-25 09:59 UTC. Time now 2017-Nov-25 10:05 UTC.
Position N 31°42' W 117°35'.

Type: Ship. MMSI: 309933000.

Date/timePositionNaut miles runAvg speedWind from/ knotsBaromVisibWave heightAir tempDewpointWater temp
2017-Nov-25 09:59N 31°42' W 117°35'3 7.4
2017-Nov-25 09:31N 31°44' W 117°31'7 7.2
2017-Nov-25 08:29N 31°45' W 117°23'4 7.3
2017-Nov-25 08:01N 31°46' W 117°19'4 6.8
2017-Nov-25 07:27N 31°48' W 117°14'3 6.7
2017-Nov-25 06:57N 31°50' W 117°11'3 6.8
2017-Nov-25 06:30N 31°51' W 117°08'7 7.0
2017-Nov-25 05:33N 31°52' W 117°00'0 7.2
2017-Nov-25 05:31N 31°52' W 116°60'10 6.6
2017-Nov-25 04:00N 31°53' W 116°48'3 6.9
2017-Nov-25 03:30N 31°51' W 116°45'2 0.1
2017-Nov-24 14:40N 31°50' W 116°43'2 9.8
2017-Nov-24 14:30N 31°51' W 116°44'611.6
2017-Nov-24 14:00N 31°54' W 116°50'612.7
2017-Nov-24 13:30N 31°56' W 116°57'712.9
2017-Nov-24 13:00N 31°58' W 117°05'612.8
2017-Nov-24 12:31N 31°60' W 117°12'611.8
2017-Nov-24 12:00N 32°03' W 117°18'611.8
2017-Nov-24 11:30N 32°07' W 117°22'611.6
2017-Nov-24 11:00N 32°12' W 117°26'611.8
2017-Nov-24 10:31N 32°16' W 117°31'611.9
2017-Nov-24 10:00N 32°21' W 117°36'611.1
2017-Nov-24 09:30N 32°26' W 117°38'611.5
2017-Nov-24 09:01N 32°31' W 117°41'611.5
2017-Nov-24 08:31N 32°35' W 117°46'611.8
2017-Nov-24 08:01N 32°41' W 117°46'611.8
2017-Nov-24 07:30N 32°47' W 117°49'612.2
2017-Nov-24 07:01N 32°52' W 117°53'612.3
2017-Nov-24 06:30N 32°57' W 117°55'612.4
2017-Nov-24 06:01N 33°03' W 117°58'5271.0
2017-Nov-24 06:00N 33°00' W 117°54'1021.3 320 / 51018.210.8 19.014.219.0
2017-Nov-24 05:30N 33°09' W 118°01'612.1
2017-Nov-24 05:01N 33°14' W 118°04'612.0
2017-Nov-24 04:30N 33°20' W 118°06'611.8
2017-Nov-24 03:59N 33°26' W 118°09'611.8
2017-Nov-24 03:30N 33°31' W 118°11'611.5
2017-Nov-24 03:00N 33°36' W 118°13'611.5
2017-Nov-24 02:30N 33°42' W 118°11'3 1.4
2017-Nov-24 00:22N 33°45' W 118°11'0 0.0
2017-Nov-23 14:48N 33°45' W 118°11'0 0.0
2017-Nov-23 14:24N 33°45' W 118°11'0 0.0
2017-Nov-23 14:00N 33°45' W 118°11'0 0.6
2017-Nov-23 13:30N 33°45' W 118°11'4 7.2
2017-Nov-23 13:00N 33°41' W 118°11'4 8.5
2017-Nov-23 12:30N 33°37' W 118°10'4 7.4
2017-Nov-23 12:00N 33°33' W 118°09'4 7.4
2017-Nov-23 11:30N 33°30' W 118°07'3 6.8
2017-Nov-23 11:00N 33°27' W 118°06'4 7.4
2017-Nov-23 10:30N 33°23' W 118°04'4 7.4
2017-Nov-23 10:00N 33°20' W 118°03'4 7.6
2017-Nov-23 09:30N 33°16' W 118°01'4 7.8
2017-Nov-23 09:00N 33°13' W 117°59'4 7.4
2017-Nov-23 08:30N 33°09' W 117°57'4 7.5
2017-Nov-23 08:00N 33°06' W 117°56'4 7.7
2017-Nov-23 07:30N 33°02' W 117°54'4 7.6
2017-Nov-23 07:00N 32°59' W 117°53'4 7.6
2017-Nov-23 06:30N 32°55' W 117°52'4 7.7
2017-Nov-23 06:00N 32°52' W 117°50'4248.5
2017-Nov-23 06:00N 32°48' W 117°48'0 0.9 350 / 121021.310.8 20.013.519.0
2017-Nov-23 05:30N 32°48' W 117°49'4 7.7
2017-Nov-23 05:00N 32°44' W 117°47'4 8.0
2017-Nov-23 04:30N 32°40' W 117°47'4 7.4
2017-Nov-23 04:00N 32°37' W 117°46'4 7.2
2017-Nov-23 03:30N 32°33' W 117°46'4 7.1
2017-Nov-23 03:00N 32°30' W 117°46'4 7.0
2017-Nov-23 02:30N 32°26' W 117°46'4 7.1
2017-Nov-23 02:00N 32°22' W 117°46'4 7.1
2017-Nov-23 01:30N 32°19' W 117°46'4 7.2
2017-Nov-23 01:00N 32°15' W 117°46'49 4.4
2017-Nov-22 14:00N 31°30' W 118°06'69 2.2 360 / 141021.310.8 19.014.219.0
2017-Nov-21 06:00N 32°36' W 117°42'39 1.6 310 / 31021.310.8 18.014.819.0
2017-Nov-20 06:00N 33°12' W 118°00'34 6.2 320 / 31020.310.8 18.014.818.0
2017-Nov-20 00:28N 33°45' W 118°11'0 0.0
2017-Nov-19 23:58N 33°45' W 118°11'0 0.0
2017-Nov-19 21:51N 33°45' W 118°11'0 0.0
2017-Nov-19 21:30N 33°45' W 118°11'0 0.0
2017-Nov-19 20:58N 33°45' W 118°11'0 0.0
2017-Nov-19 20:30N 33°45' W 118°11'0 0.0
2017-Nov-19 19:59N 33°45' W 118°11'0 0.0
2017-Nov-19 19:26N 33°45' W 118°11'0 0.0
2017-Nov-19 18:56N 33°45' W 118°11'0 0.0
2017-Nov-19 18:14N 33°45' W 118°11'0 0.0
2017-Nov-19 17:13N 33°45' W 118°11'0 0.0
2017-Nov-19 17:00N 33°45' W 118°11'0 0.0
2017-Nov-19 16:30N 33°45' W 118°11'0 0.0
2017-Nov-19 15:59N 33°45' W 118°11'0 0.0
2017-Nov-19 15:30N 33°45' W 118°11'0 0.0
2017-Nov-19 15:00N 33°45' W 118°11'0 0.0
2017-Nov-19 14:30N 33°45' W 118°11'0 0.0
2017-Nov-19 14:00N 33°45' W 118°11'0 0.7
2017-Nov-19 13:31N 33°45' W 118°11'3 6.0
2017-Nov-19 13:01N 33°42' W 118°11'5 9.3
2017-Nov-19 12:31N 33°37' W 118°10'4 7.6
2017-Nov-19 12:00N 33°33' W 118°09'4 7.3
2017-Nov-19 11:31N 33°30' W 118°07'3 6.8
2017-Nov-19 11:00N 33°27' W 118°06'3 6.8
2017-Nov-19 10:30N 33°24' W 118°04'3 6.8
2017-Nov-19 10:00N 33°21' W 118°03'4 7.1
2017-Nov-19 09:31N 33°17' W 118°01'4 7.0
2017-Nov-19 09:01N 33°14' W 117°60'3 7.0
2017-Nov-19 08:30N 33°11' W 117°58'4 7.0
2017-Nov-19 08:00N 33°08' W 117°56'3 6.9
2017-Nov-19 07:31N 33°05' W 117°54'4 7.0
2017-Nov-19 07:00N 33°01' W 117°53'3 6.9
2017-Nov-19 06:30N 32°58' W 117°52'3 6.9
2017-Nov-19 06:00N 32°55' W 117°50'2152.5
2017-Nov-19 06:00N 32°54' W 117°48'3 5.3 290 / 121022.310.8 17.013.719.0
2017-Nov-19 05:30N 32°52' W 117°49'3 6.8
2017-Nov-19 05:00N 32°48' W 117°48'4 7.1
2017-Nov-19 04:30N 32°45' W 117°48'3 6.9
2017-Nov-19 04:00N 32°42' W 117°47'4 7.1
2017-Nov-19 03:30N 32°38' W 117°46'3 6.9
2017-Nov-19 03:00N 32°35' W 117°45'3 6.9
2017-Nov-19 02:30N 32°31' W 117°45'4 7.1
2017-Nov-19 02:00N 32°28' W 117°45'4 7.0
2017-Nov-19 01:30N 32°24' W 117°45'3 6.7
2017-Nov-19 01:00N 32°21' W 117°45'3 6.7
2017-Nov-19 00:30N 32°17' W 117°44'3 6.8
2017-Nov-19 00:00N 32°14' W 117°44'3 6.8
2017-Nov-18 23:30N 32°11' W 117°44'3 6.7
2017-Nov-18 23:00N 32°07' W 117°44'5 6.9
2017-Nov-18 22:18N 32°02' W 117°43'2 6.8
2017-Nov-18 22:00N 32°00' W 117°43'4 6.8
2017-Nov-18 21:22N 31°56' W 117°43'3 6.8
2017-Nov-18 21:00N 31°54' W 117°43'3 6.9
2017-Nov-18 20:30N 31°50' W 117°42'3 6.8
2017-Nov-18 20:00N 31°47' W 117°43'3 7.0
2017-Nov-18 19:30N 31°45' W 117°47'4 7.0
2017-Nov-18 19:00N 31°44' W 117°51'31180.5
2017-Nov-18 19:00N 31°42' W 117°48'510.3 320 / 221024.310.8 19.014.219.0
2017-Nov-18 18:29N 31°42' W 117°54'3 6.9
2017-Nov-18 18:00N 31°40' W 117°58'3 6.7
2017-Nov-18 17:30N 31°42' W 118°01'3 6.8
2017-Nov-18 17:00N 31°43' W 118°05'4 7.1
2017-Nov-18 16:30N 31°45' W 118°09'3 6.9
2017-Nov-18 16:00N 31°44' W 118°13'2177.7
2017-Nov-18 16:00N 31°42' W 118°12'1 2.7 340 / 161023.310.8 18.016.419.0
2017-Nov-18 15:30N 31°41' W 118°13'4 7.0
2017-Nov-18 14:58N 31°37' W 118°12'3 7.1
2017-Nov-18 14:30N 31°34' W 118°12'4 7.2
2017-Nov-18 14:00N 31°33' W 118°07'3 7.1
2017-Nov-18 13:30N 31°33' W 118°03'4 6.8
2017-Nov-18 12:59N 31°33' W 117°59'3 6.8
2017-Nov-18 12:30N 31°34' W 117°55'3 6.9
2017-Nov-18 12:00N 31°36' W 117°52'41 6.8
2017-Nov-18 06:00N 31°48' W 117°06'13 0.8 350 / 251020.310.8 18.014.819.0
2017-Nov-17 13:47N 31°54' W 116°52'612.7
2017-Nov-17 13:21N 31°56' W 116°58'412.7
2017-Nov-17 13:01N 31°57' W 117°03'612.7
2017-Nov-17 12:30N 31°59' W 117°10'612.0
2017-Nov-17 12:00N 32°02' W 117°17'612.2
2017-Nov-17 11:30N 32°06' W 117°21'612.0
2017-Nov-17 11:01N 32°11' W 117°26'611.9
2017-Nov-17 10:30N 32°16' W 117°30'612.1
2017-Nov-17 10:00N 32°21' W 117°34'612.0
2017-Nov-17 09:30N 32°26' W 117°37'612.0
2017-Nov-17 09:00N 32°31' W 117°41'612.1
2017-Nov-17 08:31N 32°37' W 117°44'612.1
2017-Nov-17 08:01N 32°42' W 117°47'612.2
2017-Nov-17 07:30N 32°47' W 117°51'612.3
2017-Nov-17 07:01N 32°53' W 117°54'612.3
2017-Nov-17 06:31N 32°59' W 117°56'612.1
2017-Nov-17 06:00N 33°04' W 117°59'6391.9
2017-Nov-17 06:00N 33°00' W 117°54'1224.3 280 / 51019.310.8 18.013.119.0
2017-Nov-17 05:30N 33°10' W 118°01'612.4
2017-Nov-17 05:00N 33°16' W 118°04'612.1
2017-Nov-17 04:30N 33°21' W 118°07'611.9
2017-Nov-17 04:01N 33°27' W 118°10'612.1
2017-Nov-17 03:30N 33°32' W 118°12'510.5
2017-Nov-17 03:00N 33°38' W 118°13'510.7
2017-Nov-17 02:30N 33°43' W 118°11'2 0.3
2017-Nov-16 19:12N 33°45' W 118°11'0 0.0
2017-Nov-16 19:00N 33°45' W 118°11'0 0.0
2017-Nov-16 18:24N 33°45' W 118°11'0 0.0
2017-Nov-16 17:54N 33°45' W 118°11'0 0.0
2017-Nov-16 17:29N 33°45' W 118°11'0 0.0
2017-Nov-16 16:59N 33°45' W 118°11'0 0.0
2017-Nov-16 16:29N 33°45' W 118°11'0 0.0
2017-Nov-16 15:59N 33°45' W 118°11'0 0.0
2017-Nov-16 15:23N 33°45' W 118°11'0 0.0
2017-Nov-16 14:59N 33°45' W 118°11'0 0.0
2017-Nov-16 14:30N 33°45' W 118°11'0 0.0
2017-Nov-16 14:00N 33°45' W 118°11'0 0.5
2017-Nov-16 13:31N 33°45' W 118°11'4 7.5
2017-Nov-16 13:00N 33°41' W 118°11'4 8.0
2017-Nov-16 12:30N 33°37' W 118°10'4 7.7
2017-Nov-16 12:00N 33°33' W 118°09'4 7.5
2017-Nov-16 11:30N 33°30' W 118°07'4 7.0
2017-Nov-16 11:00N 33°27' W 118°06'4 7.4
2017-Nov-16 10:30N 33°23' W 118°04'4 7.3
2017-Nov-16 10:00N 33°20' W 118°03'4 7.5
2017-Nov-16 09:30N 33°16' W 118°01'4 7.3
2017-Nov-16 09:00N 33°13' W 117°59'4 7.5
2017-Nov-16 08:30N 33°10' W 117°58'4 7.1
2017-Nov-16 08:00N 33°06' W 117°56'3 6.8
2017-Nov-16 07:30N 33°03' W 117°54'3 6.7
2017-Nov-16 07:00N 32°60' W 117°53'3 6.6
2017-Nov-16 06:30N 32°57' W 117°51'3 6.6
2017-Nov-16 06:00N 32°54' W 117°50'2201.8
2017-Nov-16 06:00N 32°54' W 117°48'3 7.2 340 / 81019.310.8 17.013.719.0
2017-Nov-16 05:30N 32°51' W 117°49'3 6.4
2017-Nov-16 05:00N 32°47' W 117°48'3 6.5
2017-Nov-16 04:30N 32°44' W 117°47'3 6.7
2017-Nov-16 04:00N 32°41' W 117°47'3 6.7
2017-Nov-16 03:30N 32°38' W 117°46'4 7.0
2017-Nov-16 03:00N 32°34' W 117°45'4 7.0
2017-Nov-16 02:30N 32°31' W 117°45'3 6.9
2017-Nov-16 02:00N 32°27' W 117°45'3 6.7
2017-Nov-16 01:30N 32°24' W 117°45'4 7.1
2017-Nov-16 01:00N 32°20' W 117°45'4 7.1
2017-Nov-16 00:30N 32°17' W 117°44'4 7.2
2017-Nov-16 00:00N 32°13' W 117°44'4 7.3
2017-Nov-15 23:30N 32°10' W 117°44'3 6.6
2017-Nov-15 23:00N 32°06' W 117°44'8 6.8
2017-Nov-15 21:49N 31°58' W 117°43'2 6.6
2017-Nov-15 21:30N 31°56' W 117°43'3 6.6
2017-Nov-15 21:00N 31°53' W 117°43'3 6.6
2017-Nov-15 20:30N 31°50' W 117°43'3 6.5
2017-Nov-15 20:00N 31°47' W 117°44'3 6.9
2017-Nov-15 19:30N 31°45' W 117°47'3 6.8
2017-Nov-15 19:00N 31°43' W 117°51'4 6.8
2017-Nov-15 18:29N 31°42' W 117°55'612.4
2017-Nov-15 18:00N 31°36' W 117°54'63657.4 300 / 121020.310.8 19.015.919.0
2017-Nov-15 17:59N 31°41' W 117°58'3 6.8
2017-Nov-15 17:29N 31°42' W 118°02'3 7.1
2017-Nov-15 17:00N 31°43' W 118°06'4 7.6
2017-Nov-15 16:30N 31°45' W 118°10'3 6.7
2017-Nov-15 16:00N 31°43' W 118°13'4 7.1
2017-Nov-15 15:30N 31°39' W 118°13'3 6.9
2017-Nov-15 15:00N 31°36' W 118°12'3 6.5
2017-Nov-15 14:30N 31°34' W 118°09'3 6.6
2017-Nov-15 14:00N 31°33' W 118°05'3 6.7
2017-Nov-15 13:30N 31°33' W 118°01'3 6.7
2017-Nov-15 13:00N 31°33' W 117°57'5364.3
2017-Nov-15 13:00N 31°30' W 117°54'5 9.3 330 / 181018.210.8 17.013.719.0
2017-Nov-15 12:30N 31°35' W 117°54'3 6.6
2017-Nov-15 12:00N 31°37' W 117°51'3 7.0
2017-Nov-15 11:30N 31°39' W 117°48'3 6.9
2017-Nov-15 11:00N 31°40' W 117°44'  
Track history (hours):
 
Tides and Currents Weather Stations Pressure Air Temp Water Temp Dewpoint Dewpoint Depression Visibility Wind Speed Wind Dir Waves Ship Positions

Imagination

Operator: Carnival Cruise Lines

Last reported at 2017-Nov-25 09:59 UTC. Time now 2017-Nov-25 10:05 UTC.
Position N 31°42' W 117°35'.

Type: Ship. MMSI: 309933000.

Date/timePositionNaut miles runAvg speedWind from/ knotsBaromVisibWave heightAir tempDewpointWater temp
2017-Nov-25 09:59N 31°42' W 117°35'3 7.4
2017-Nov-25 09:31N 31°44' W 117°31'7 7.2
2017-Nov-25 08:29N 31°45' W 117°23'4 7.3
2017-Nov-25 08:01N 31°46' W 117°19'4 6.8
2017-Nov-25 07:27N 31°48' W 117°14'3 6.7
2017-Nov-25 06:57N 31°50' W 117°11'3 6.8
2017-Nov-25 06:30N 31°51' W 117°08'7 7.0
2017-Nov-25 05:33N 31°52' W 117°00'0 7.2
2017-Nov-25 05:31N 31°52' W 116°60'10 6.6
2017-Nov-25 04:00N 31°53' W 116°48'3 6.9
2017-Nov-25 03:30N 31°51' W 116°45'2 0.1
2017-Nov-24 14:40N 31°50' W 116°43'2 9.8
2017-Nov-24 14:30N 31°51' W 116°44'611.6
2017-Nov-24 14:00N 31°54' W 116°50'612.7
2017-Nov-24 13:30N 31°56' W 116°57'712.9
2017-Nov-24 13:00N 31°58' W 117°05'612.8
2017-Nov-24 12:31N 31°60' W 117°12'611.8
2017-Nov-24 12:00N 32°03' W 117°18'611.8
2017-Nov-24 11:30N 32°07' W 117°22'611.6
2017-Nov-24 11:00N 32°12' W 117°26'611.8
2017-Nov-24 10:31N 32°16' W 117°31'611.9
2017-Nov-24 10:00N 32°21' W 117°36'611.1
2017-Nov-24 09:30N 32°26' W 117°38'611.5
2017-Nov-24 09:01N 32°31' W 117°41'611.5
2017-Nov-24 08:31N 32°35' W 117°46'611.8
2017-Nov-24 08:01N 32°41' W 117°46'611.8
2017-Nov-24 07:30N 32°47' W 117°49'612.2
2017-Nov-24 07:01N 32°52' W 117°53'612.3
2017-Nov-24 06:30N 32°57' W 117°55'612.4
2017-Nov-24 06:01N 33°03' W 117°58'5271.0
2017-Nov-24 06:00N 33°00' W 117°54'1021.3 320 / 51018.210.8 19.014.219.0
2017-Nov-24 05:30N 33°09' W 118°01'612.1
2017-Nov-24 05:01N 33°14' W 118°04'612.0
2017-Nov-24 04:30N 33°20' W 118°06'611.8
2017-Nov-24 03:59N 33°26' W 118°09'611.8
2017-Nov-24 03:30N 33°31' W 118°11'611.5
2017-Nov-24 03:00N 33°36' W 118°13'611.5
2017-Nov-24 02:30N 33°42' W 118°11'3 1.4
2017-Nov-24 00:22N 33°45' W 118°11'0 0.0
2017-Nov-23 14:48N 33°45' W 118°11'0 0.0
2017-Nov-23 14:24N 33°45' W 118°11'0 0.0
2017-Nov-23 14:00N 33°45' W 118°11'0 0.6
2017-Nov-23 13:30N 33°45' W 118°11'4 7.2
2017-Nov-23 13:00N 33°41' W 118°11'4 8.5
2017-Nov-23 12:30N 33°37' W 118°10'4 7.4
2017-Nov-23 12:00N 33°33' W 118°09'4 7.4
2017-Nov-23 11:30N 33°30' W 118°07'3 6.8
2017-Nov-23 11:00N 33°27' W 118°06'4 7.4
2017-Nov-23 10:30N 33°23' W 118°04'4 7.4
2017-Nov-23 10:00N 33°20' W 118°03'4 7.6
2017-Nov-23 09:30N 33°16' W 118°01'4 7.8
2017-Nov-23 09:00N 33°13' W 117°59'4 7.4
2017-Nov-23 08:30N 33°09' W 117°57'4 7.5
2017-Nov-23 08:00N 33°06' W 117°56'4 7.7
2017-Nov-23 07:30N 33°02' W 117°54'4 7.6
2017-Nov-23 07:00N 32°59' W 117°53'4 7.6
2017-Nov-23 06:30N 32°55' W 117°52'4 7.7
2017-Nov-23 06:00N 32°52' W 117°50'4248.5
2017-Nov-23 06:00N 32°48' W 117°48'0 0.9 350 / 121021.310.8 20.013.519.0
2017-Nov-23 05:30N 32°48' W 117°49'4 7.7
2017-Nov-23 05:00N 32°44' W 117°47'4 8.0
2017-Nov-23 04:30N 32°40' W 117°47'4 7.4
2017-Nov-23 04:00N 32°37' W 117°46'4 7.2
2017-Nov-23 03:30N 32°33' W 117°46'4 7.1
2017-Nov-23 03:00N 32°30' W 117°46'4 7.0
2017-Nov-23 02:30N 32°26' W 117°46'4 7.1
2017-Nov-23 02:00N 32°22' W 117°46'4 7.1
2017-Nov-23 01:30N 32°19' W 117°46'4 7.2
2017-Nov-23 01:00N 32°15' W 117°46'49 4.4
2017-Nov-22 14:00N 31°30' W 118°06'69 2.2 360 / 141021.310.8 19.014.219.0
2017-Nov-21 06:00N 32°36' W 117°42'39 1.6 310 / 31021.310.8 18.014.819.0
2017-Nov-20 06:00N 33°12' W 118°00'34 6.2 320 / 31020.310.8 18.014.818.0
2017-Nov-20 00:28N 33°45' W 118°11'0 0.0
2017-Nov-19 23:58N 33°45' W 118°11'0 0.0
2017-Nov-19 21:51N 33°45' W 118°11'0 0.0
2017-Nov-19 21:30N 33°45' W 118°11'0 0.0
2017-Nov-19 20:58N 33°45' W 118°11'0 0.0
2017-Nov-19 20:30N 33°45' W 118°11'0 0.0
2017-Nov-19 19:59N 33°45' W 118°11'0 0.0
2017-Nov-19 19:26N 33°45' W 118°11'0 0.0
2017-Nov-19 18:56N 33°45' W 118°11'0 0.0
2017-Nov-19 18:14N 33°45' W 118°11'0 0.0
2017-Nov-19 17:13N 33°45' W 118°11'0 0.0
2017-Nov-19 17:00N 33°45' W 118°11'0 0.0
2017-Nov-19 16:30N 33°45' W 118°11'0 0.0
2017-Nov-19 15:59N 33°45' W 118°11'0 0.0
2017-Nov-19 15:30N 33°45' W 118°11'0 0.0
2017-Nov-19 15:00N 33°45' W 118°11'0 0.0
2017-Nov-19 14:30N 33°45' W 118°11'0 0.0
2017-Nov-19 14:00N 33°45' W 118°11'0 0.7
2017-Nov-19 13:31N 33°45' W 118°11'3 6.0
2017-Nov-19 13:01N 33°42' W 118°11'5 9.3
2017-Nov-19 12:31N 33°37' W 118°10'4 7.6
2017-Nov-19 12:00N 33°33' W 118°09'4 7.3
2017-Nov-19 11:31N 33°30' W 118°07'3 6.8
2017-Nov-19 11:00N 33°27' W 118°06'3 6.8
2017-Nov-19 10:30N 33°24' W 118°04'3 6.8
2017-Nov-19 10:00N 33°21' W 118°03'4 7.1
2017-Nov-19 09:31N 33°17' W 118°01'4 7.0
2017-Nov-19 09:01N 33°14' W 117°60'3 7.0
2017-Nov-19 08:30N 33°11' W 117°58'4 7.0
2017-Nov-19 08:00N 33°08' W 117°56'3 6.9
2017-Nov-19 07:31N 33°05' W 117°54'4 7.0
2017-Nov-19 07:00N 33°01' W 117°53'3 6.9
2017-Nov-19 06:30N 32°58' W 117°52'3 6.9
2017-Nov-19 06:00N 32°55' W 117°50'2152.5
2017-Nov-19 06:00N 32°54' W 117°48'3 5.3 290 / 121022.310.8 17.013.719.0
2017-Nov-19 05:30N 32°52' W 117°49'3 6.8
2017-Nov-19 05:00N 32°48' W 117°48'4 7.1
2017-Nov-19 04:30N 32°45' W 117°48'3 6.9
2017-Nov-19 04:00N 32°42' W 117°47'4 7.1
2017-Nov-19 03:30N 32°38' W 117°46'3 6.9
2017-Nov-19 03:00N 32°35' W 117°45'3 6.9
2017-Nov-19 02:30N 32°31' W 117°45'4 7.1
2017-Nov-19 02:00N 32°28' W 117°45'4 7.0
2017-Nov-19 01:30N 32°24' W 117°45'3 6.7
2017-Nov-19 01:00N 32°21' W 117°45'3 6.7
2017-Nov-19 00:30N 32°17' W 117°44'3 6.8
2017-Nov-19 00:00N 32°14' W 117°44'3 6.8
2017-Nov-18 23:30N 32°11' W 117°44'3 6.7
2017-Nov-18 23:00N 32°07' W 117°44'5 6.9
2017-Nov-18 22:18N 32°02' W 117°43'2 6.8
2017-Nov-18 22:00N 32°00' W 117°43'4 6.8
2017-Nov-18 21:22N 31°56' W 117°43'3 6.8
2017-Nov-18 21:00N 31°54' W 117°43'3 6.9
2017-Nov-18 20:30N 31°50' W 117°42'3 6.8
2017-Nov-18 20:00N 31°47' W 117°43'3 7.0
2017-Nov-18 19:30N 31°45' W 117°47'4 7.0
2017-Nov-18 19:00N 31°44' W 117°51'31180.5
2017-Nov-18 19:00N 31°42' W 117°48'510.3 320 / 221024.310.8 19.014.219.0
2017-Nov-18 18:29N 31°42' W 117°54'3 6.9
2017-Nov-18 18:00N 31°40' W 117°58'3 6.7
2017-Nov-18 17:30N 31°42' W 118°01'3 6.8
2017-Nov-18 17:00N 31°43' W 118°05'4 7.1
2017-Nov-18 16:30N 31°45' W 118°09'3 6.9
2017-Nov-18 16:00N 31°44' W 118°13'2177.7
2017-Nov-18 16:00N 31°42' W 118°12'1 2.7 340 / 161023.310.8 18.016.419.0
2017-Nov-18 15:30N 31°41' W 118°13'4 7.0
2017-Nov-18 14:58N 31°37' W 118°12'3 7.1
2017-Nov-18 14:30N 31°34' W 118°12'4 7.2
2017-Nov-18 14:00N 31°33' W 118°07'3 7.1
2017-Nov-18 13:30N 31°33' W 118°03'4 6.8
2017-Nov-18 12:59N 31°33' W 117°59'3 6.8
2017-Nov-18 12:30N 31°34' W 117°55'3 6.9
2017-Nov-18 12:00N 31°36' W 117°52'41 6.8
2017-Nov-18 06:00N 31°48' W 117°06'13 0.8 350 / 251020.310.8 18.014.819.0
2017-Nov-17 13:47N 31°54' W 116°52'612.7
2017-Nov-17 13:21N 31°56' W 116°58'412.7
2017-Nov-17 13:01N 31°57' W 117°03'612.7
2017-Nov-17 12:30N 31°59' W 117°10'612.0
2017-Nov-17 12:00N 32°02' W 117°17'612.2
2017-Nov-17 11:30N 32°06' W 117°21'612.0
2017-Nov-17 11:01N 32°11' W 117°26'611.9
2017-Nov-17 10:30N 32°16' W 117°30'612.1
2017-Nov-17 10:00N 32°21' W 117°34'612.0
2017-Nov-17 09:30N 32°26' W 117°37'612.0
2017-Nov-17 09:00N 32°31' W 117°41'612.1
2017-Nov-17 08:31N 32°37' W 117°44'612.1
2017-Nov-17 08:01N 32°42' W 117°47'612.2
2017-Nov-17 07:30N 32°47' W 117°51'612.3
2017-Nov-17 07:01N 32°53' W 117°54'612.3
2017-Nov-17 06:31N 32°59' W 117°56'612.1
2017-Nov-17 06:00N 33°04' W 117°59'6391.9
2017-Nov-17 06:00N 33°00' W 117°54'1224.3 280 / 51019.310.8 18.013.119.0
2017-Nov-17 05:30N 33°10' W 118°01'612.4
2017-Nov-17 05:00N 33°16' W 118°04'612.1
2017-Nov-17 04:30N 33°21' W 118°07'611.9
2017-Nov-17 04:01N 33°27' W 118°10'612.1
2017-Nov-17 03:30N 33°32' W 118°12'510.5
2017-Nov-17 03:00N 33°38' W 118°13'510.7
2017-Nov-17 02:30N 33°43' W 118°11'2 0.3
2017-Nov-16 19:12N 33°45' W 118°11'0 0.0
2017-Nov-16 19:00N 33°45' W 118°11'0 0.0
2017-Nov-16 18:24N 33°45' W 118°11'0 0.0
2017-Nov-16 17:54N 33°45' W 118°11'0 0.0
2017-Nov-16 17:29N 33°45' W 118°11'0 0.0
2017-Nov-16 16:59N 33°45' W 118°11'0 0.0
2017-Nov-16 16:29N 33°45' W 118°11'0 0.0
2017-Nov-16 15:59N 33°45' W 118°11'0 0.0
2017-Nov-16 15:23N 33°45' W 118°11'0 0.0
2017-Nov-16 14:59N 33°45' W 118°11'0 0.0
2017-Nov-16 14:30N 33°45' W 118°11'0 0.0
2017-Nov-16 14:00N 33°45' W 118°11'0 0.5
2017-Nov-16 13:31N 33°45' W 118°11'4 7.5
2017-Nov-16 13:00N 33°41' W 118°11'4 8.0
2017-Nov-16 12:30N 33°37' W 118°10'4 7.7
2017-Nov-16 12:00N 33°33' W 118°09'4 7.5
2017-Nov-16 11:30N 33°30' W 118°07'4 7.0
2017-Nov-16 11:00N 33°27' W 118°06'4 7.4
2017-Nov-16 10:30N 33°23' W 118°04'4 7.3
2017-Nov-16 10:00N 33°20' W 118°03'4 7.5
2017-Nov-16 09:30N 33°16' W 118°01'4 7.3
2017-Nov-16 09:00N 33°13' W 117°59'4 7.5
2017-Nov-16 08:30N 33°10' W 117°58'4 7.1
2017-Nov-16 08:00N 33°06' W 117°56'3 6.8
2017-Nov-16 07:30N 33°03' W 117°54'3 6.7
2017-Nov-16 07:00N 32°60' W 117°53'3 6.6
2017-Nov-16 06:30N 32°57' W 117°51'3 6.6
2017-Nov-16 06:00N 32°54' W 117°50'2201.8
2017-Nov-16 06:00N 32°54' W 117°48'3 7.2 340 / 81019.310.8 17.013.719.0
2017-Nov-16 05:30N 32°51' W 117°49'3 6.4
2017-Nov-16 05:00N 32°47' W 117°48'3 6.5
2017-Nov-16 04:30N 32°44' W 117°47'3 6.7
2017-Nov-16 04:00N 32°41' W 117°47'3 6.7
2017-Nov-16 03:30N 32°38' W 117°46'4 7.0
2017-Nov-16 03:00N 32°34' W 117°45'4 7.0
2017-Nov-16 02:30N 32°31' W 117°45'3 6.9
2017-Nov-16 02:00N 32°27' W 117°45'3 6.7
2017-Nov-16 01:30N 32°24' W 117°45'4 7.1
2017-Nov-16 01:00N 32°20' W 117°45'4 7.1
2017-Nov-16 00:30N 32°17' W 117°44'4 7.2
2017-Nov-16 00:00N 32°13' W 117°44'4 7.3
2017-Nov-15 23:30N 32°10' W 117°44'3 6.6
2017-Nov-15 23:00N 32°06' W 117°44'8 6.8
2017-Nov-15 21:49N 31°58' W 117°43'2 6.6
2017-Nov-15 21:30N 31°56' W 117°43'3 6.6
2017-Nov-15 21:00N 31°53' W 117°43'3 6.6
2017-Nov-15 20:30N 31°50' W 117°43'3 6.5
2017-Nov-15 20:00N 31°47' W 117°44'3 6.9
2017-Nov-15 19:30N 31°45' W 117°47'3 6.8
2017-Nov-15 19:00N 31°43' W 117°51'4 6.8
2017-Nov-15 18:29N 31°42' W 117°55'612.4
2017-Nov-15 18:00N 31°36' W 117°54'63657.4 300 / 121020.310.8 19.015.919.0
2017-Nov-15 17:59N 31°41' W 117°58'3 6.8
2017-Nov-15 17:29N 31°42' W 118°02'3 7.1
2017-Nov-15 17:00N 31°43' W 118°06'4 7.6
2017-Nov-15 16:30N 31°45' W 118°10'3 6.7
2017-Nov-15 16:00N 31°43' W 118°13'4 7.1
2017-Nov-15 15:30N 31°39' W 118°13'3 6.9
2017-Nov-15 15:00N 31°36' W 118°12'3 6.5
2017-Nov-15 14:30N 31°34' W 118°09'3 6.6
2017-Nov-15 14:00N 31°33' W 118°05'3 6.7
2017-Nov-15 13:30N 31°33' W 118°01'3 6.7
2017-Nov-15 13:00N 31°33' W 117°57'5364.3
2017-Nov-15 13:00N 31°30' W 117°54'5 9.3 330 / 181018.210.8 17.013.719.0
2017-Nov-15 12:30N 31°35' W 117°54'3 6.6
2017-Nov-15 12:00N 31°37' W 117°51'3 7.0
2017-Nov-15 11:30N 31°39' W 117°48'3 6.9
2017-Nov-15 11:00N 31°40' W 117°44'  

Dump ship's entire track history